Terminal Aerodrome Forecast
Issued by NWS Sterling, VA

Current Version | Previous Version | Graphics & Text | Print | Product List | Glossary On
Versions: 1 2 3 4 5 6 7 8 9 10 11 12 13 14 15 16 17 18 19 20 21 22 23 24 25 26 27 28 29 30
000
FTUS41 KLWX 031133
TAFIAD
TAF
KIAD 031133Z 0312/0418 00000KT 2SM BR BKN140
     FM031400 VRB03KT P6SM BKN130
     FM032100 15008KT 6SM -SHRA OVC045
     FM040700 12006KT 6SM -SHRA OVC010
     FM041000 13005KT P6SM OVC008
     FM041400 25005KT 6SM -SHRA OVC015=

USA.gov is the U.S. government's official web portal to all federal, state and local government web resources and services.